Terminal Aerodrome Forecast
Issued by NWS Paducah, KY

Home | Current Version | Previous Version | Text Only | Print | Product List | Glossary On
Versions: 1 2 3 4 5 6 7 8 9 10 11 12 13 14 15 16 17 18 19
000
FTUS43 KPAH 301928 AAC
TAFPAH
TAF AMD
KPAH 301928Z 3019/3118 19012G20KT P6SM SCT030 BKN050
      TEMPO 3020/3022 4SM -SHRA BR BKN030
     FM302200 23012G20KT P6SM VCTS BKN025CB
     FM310100 25010KT P6SM SCT010 BKN030
     FM310600 30007KT P6SM OVC009
     FM311500 35006KT P6SM VCSH SCT009 BKN015=

USA.gov is the U.S. government's official web portal to all federal, state and local government web resources and services.